Terminal Aerodrome Forecast
Issued by NWS

Current Version | Previous Version | Text Only | Print | Product List | Glossary Off
Versions: 1 2 3 4 5 6 7 8 9 10 11 12 13 14 15 16 17 18 19 20 21 22 23 24 25

000
FTUS41 KPBZ 262320
TAFHLG
TAF
KHLG 262320Z 2700/2724 25004KT P6SM FEW030 OVC060
     FM270900 VRB03KT 1SM BR SCT025
      TEMPO 2709/2712 1/2SM FG SCT001
     FM271500 35003KT P6SM BKN035=

USA.gov is the U.S. government's official web portal to all federal, state and local government web resources and services.